Time;durP1;ratioP1;P1;durP2;ratioP2;P2;SDS_P1;SDS_P2;PMS_P1;PMS_P2;Temp;Humidity;BMP_temperature;BMP_pressure;BME280_temperature;BME280_humidity;BME280_pressure;Samples;Min_cycle;Max_cycle;Signal;HPM_P1;HPM_P2
2021/04/18 00:00:18;;;;;;;3.37;2.80;;;11.70;53.60;;;;;;5012104;28;20458;-81
2021/04/18 00:02:49;;;;;;;6.90;3.80;;;11.60;53.60;;;;;;5013499;28;20557;-81
2021/04/18 00:05:25;;;;;;;6.83;3.17;;;11.70;53.90;;;;;;5010424;28;20540;-77
2021/04/18 00:07:54;;;;;;;6.57;3.47;;;11.60;54.00;;;;;;5014158;28;20543;-82
2021/04/18 00:10:21;;;;;;;4.23;3.37;;;11.50;54.20;;;;;;5014070;28;20989;-80
2021/04/18 00:12:48;;;;;;;6.73;4.00;;;11.50;54.70;;;;;;5014143;28;20468;-79
2021/04/18 00:15:17;;;;;;;2.90;2.70;;;11.40;54.50;;;;;;5014955;28;20475;-83
2021/04/18 00:17:43;;;;;;;4.80;3.73;;;11.50;54.40;;;;;;5015123;28;20523;-80
2021/04/18 00:20:11;;;;;;;8.30;3.10;;;11.50;54.30;;;;;;5032884;28;20458;-80
2021/04/18 00:22:39;;;;;;;6.73;3.87;;;11.50;54.20;;;;;;5016354;28;20461;-79
2021/04/18 00:25:07;;;;;;;4.47;3.50;;;11.40;54.70;;;;;;5020027;28;20569;-78
2021/04/18 00:27:33;;;;;;;3.80;3.37;;;11.50;54.40;;;;;;5039205;28;20468;-77
2021/04/18 00:30:00;;;;;;;4.57;3.13;;;11.40;54.60;;;;;;5031276;28;20457;-81
2021/04/18 00:32:27;;;;;;;4.23;3.83;;;11.30;54.90;;;;;;5026137;28;20524;-78
2021/04/18 00:34:54;;;;;;;8.40;2.87;;;11.00;55.30;;;;;;5040155;28;20449;-79
2021/04/18 00:37:21;;;;;;;5.73;3.67;;;11.10;55.80;;;;;;5043154;28;20457;-77
2021/04/18 00:39:47;;;;;;;5.33;2.80;;;10.90;55.80;;;;;;5034515;28;20533;-79
2021/04/18 00:42:15;;;;;;;7.00;3.30;;;10.90;56.40;;;;;;5021455;28;20724;-81
2021/04/18 00:44:42;;;;;;;4.43;2.90;;;11.10;56.30;;;;;;5024167;28;20470;-78
2021/04/18 00:47:09;;;;;;;4.00;3.60;;;10.90;56.30;;;;;;5031793;28;20463;-78
2021/04/18 00:49:35;;;;;;;6.00;3.27;;;11.00;56.80;;;;;;5031349;28;20487;-80
2021/04/18 00:52:01;;;;;;;5.73;3.20;;;10.90;56.90;;;;;;5021731;28;20966;-80
2021/04/18 00:54:28;;;;;;;5.43;3.43;;;10.80;57.20;;;;;;5018507;28;20866;-78
2021/04/18 00:56:54;;;;;;;4.43;3.13;;;10.90;57.50;;;;;;5034824;28;20457;-79
2021/04/18 00:59:21;;;;;;;12.90;4.13;;;10.80;57.50;;;;;;5038210;28;20445;-78
2021/04/18 01:01:48;;;;;;;4.47;3.10;;;10.80;57.60;;;;;;5035959;28;20449;-79
2021/04/18 01:04:14;;;;;;;4.10;3.70;;;10.70;58.00;;;;;;5038702;28;20489;-78
2021/04/18 01:06:41;;;;;;;5.53;3.20;;;10.60;58.20;;;;;;5039100;28;20453;-78
2021/04/18 01:09:07;;;;;;;4.77;3.40;;;10.70;59.00;;;;;;5030426;28;20463;-78
2021/04/18 01:11:34;;;;;;;8.87;3.43;;;10.60;58.80;;;;;;5017369;28;20457;-80
2021/04/18 01:14:00;;;;;;;6.57;3.73;;;10.80;59.10;;;;;;5016396;28;20454;-78
2021/04/18 01:16:27;;;;;;;5.33;3.43;;;10.80;59.10;;;;;;5016791;28;20473;-78
2021/04/18 01:18:54;;;;;;;7.03;2.80;;;10.90;59.10;;;;;;5016686;28;20457;-81
2021/04/18 01:21:21;;;;;;;5.00;3.47;;;10.80;59.20;;;;;;5015619;28;20446;-79
2021/04/18 01:23:48;;;;;;;6.80;3.90;;;10.80;59.70;;;;;;5014671;28;21078;-78
2021/04/18 01:26:14;;;;;;;8.07;3.73;;;10.80;59.60;;;;;;5014903;28;20505;-77
2021/04/18 01:28:41;;;;;;;4.07;3.00;;;10.80;59.80;;;;;;5013396;28;20453;-80
2021/04/18 01:31:08;;;;;;;4.83;3.47;;;10.80;60.20;;;;;;5016721;28;20448;-78
2021/04/18 01:33:35;;;;;;;3.50;3.20;;;10.70;60.40;;;;;;5015023;28;20520;-80
2021/04/18 01:36:03;;;;;;;3.33;2.90;;;10.70;60.70;;;;;;5015602;28;21047;-80
2021/04/18 01:38:31;;;;;;;8.40;3.60;;;10.70;61.00;;;;;;5017853;28;20955;-78
2021/04/18 01:41:01;;;;;;;7.33;3.40;;;10.80;60.90;;;;;;5016293;28;20560;-78
2021/04/18 01:43:27;;;;;;;6.03;3.80;;;10.70;61.20;;;;;;5016787;28;20529;-82
2021/04/18 01:45:54;;;;;;;4.23;3.20;;;10.70;61.50;;;;;;5016896;28;21345;-81
2021/04/18 01:48:21;;;;;;;6.23;3.50;;;10.70;61.80;;;;;;5017233;28;20507;-79
2021/04/18 01:50:51;;;;;;;3.83;3.43;;;10.70;61.90;;;;;;5017318;28;20453;-79
2021/04/18 01:53:18;;;;;;;6.30;3.53;;;10.70;62.10;;;;;;5017232;28;21891;-80
2021/04/18 01:55:45;;;;;;;8.80;4.10;;;10.70;62.30;;;;;;5016291;28;20861;-83
2021/04/18 01:58:12;;;;;;;6.07;3.63;;;10.60;63.00;;;;;;5016893;28;20458;-82
2021/04/18 02:00:39;;;;;;;5.50;3.37;;;10.60;63.60;;;;;;5017224;28;20544;-82
2021/04/18 02:03:06;;;;;;;5.93;3.80;;;10.60;63.70;;;;;;5015824;28;20923;-79
2021/04/18 02:05:35;;;;;;;6.07;3.43;;;10.60;63.80;;;;;;5019852;28;20486;-81
2021/04/18 02:08:02;;;;;;;6.30;3.90;;;10.70;63.90;;;;;;5017424;28;20457;-79
2021/04/18 02:10:28;;;;;;;5.10;3.90;;;10.80;63.90;;;;;;5019086;28;22381;-80
2021/04/18 02:12:54;;;;;;;7.43;3.77;;;10.80;63.90;;;;;;5022887;28;20465;-79
2021/04/18 02:15:21;;;;;;;5.80;3.77;;;10.80;64.70;;;;;;5024141;28;20480;-77
2021/04/18 02:17:47;;;;;;;4.67;3.27;;;11.00;63.90;;;;;;5022140;28;20464;-80
2021/04/18 02:20:16;;;;;;;4.10;3.70;;;11.30;62.70;;;;;;5021729;28;21001;-79
2021/04/18 02:22:44;;;;;;;5.37;3.60;;;11.20;62.60;;;;;;5027310;28;20446;-80
2021/04/18 02:25:12;;;;;;;3.17;2.80;;;11.10;62.70;;;;;;5017732;28;20612;-81
2021/04/18 02:27:38;;;;;;;3.90;3.30;;;10.90;63.50;;;;;;5017287;28;20493;-82
2021/04/18 02:30:06;;;;;;;4.93;3.37;;;10.90;64.10;;;;;;5018231;28;20446;-79
2021/04/18 02:32:33;;;;;;;4.60;3.47;;;10.70;64.30;;;;;;5017923;28;20549;-82
2021/04/18 02:35:04;;;;;;;5.43;3.17;;;10.60;65.00;;;;;;5015830;28;20515;-79
2021/04/18 02:37:31;;;;;;;4.43;2.93;;;10.60;65.70;;;;;;5015600;28;20480;-78
2021/04/18 02:39:57;;;;;;;4.77;3.70;;;10.60;66.10;;;;;;5014223;28;20465;-78
2021/04/18 02:42:24;;;;;;;7.43;4.00;;;10.50;66.40;;;;;;5016462;28;20466;-82
2021/04/18 02:44:50;;;;;;;7.70;3.53;;;10.50;66.60;;;;;;5021414;28;20481;-80
2021/04/18 02:47:17;;;;;;;5.70;4.13;;;10.50;66.90;;;;;;5015893;28;20474;-79
2021/04/18 02:49:43;;;;;;;4.67;3.73;;;10.60;67.30;;;;;;5017253;28;20466;-81
2021/04/18 02:52:10;;;;;;;5.20;3.20;;;10.90;66.00;;;;;;5018730;28;20461;-79
2021/04/18 02:54:36;;;;;;;4.50;3.40;;;10.90;65.80;;;;;;5017829;28;20481;-79
2021/04/18 02:57:03;;;;;;;7.20;4.23;;;10.80;66.60;;;;;;5017502;28;20973;-80
2021/04/18 02:59:30;;;;;;;6.67;3.33;;;10.70;66.40;;;;;;5016487;28;20462;-79
2021/04/18 03:01:56;;;;;;;6.87;3.67;;;11.00;66.50;;;;;;5016903;28;21154;-78
2021/04/18 03:04:23;;;;;;;5.30;4.00;;;10.70;66.40;;;;;;5018633;28;20469;-81
2021/04/18 03:06:50;;;;;;;5.90;3.90;;;10.60;67.40;;;;;;5018179;28;20537;-78
2021/04/18 03:09:16;;;;;;;9.20;4.70;;;10.50;68.10;;;;;;5019186;28;20456;-79
2021/04/18 03:11:42;;;;;;;4.97;3.67;;;10.50;68.70;;;;;;5020690;28;20477;-78
2021/04/18 03:14:09;;;;;;;5.70;4.13;;;10.40;68.90;;;;;;5017852;28;20461;-76
2021/04/18 03:16:35;;;;;;;3.53;3.13;;;10.40;69.30;;;;;;5018267;28;21110;-77
2021/04/18 03:19:02;;;;;;;4.43;3.57;;;10.40;69.60;;;;;;5018376;28;20465;-79
2021/04/18 03:21:28;;;;;;;8.60;4.47;;;10.60;69.30;;;;;;5016249;28;20472;-80
2021/04/18 03:23:54;;;;;;;8.10;4.23;;;10.60;69.40;;;;;;5014555;28;21343;-79
2021/04/18 03:26:21;;;;;;;4.80;4.03;;;10.60;69.40;;;;;;5013716;28;20499;-79
2021/04/18 03:28:48;;;;;;;7.43;4.13;;;10.50;69.60;;;;;;5013577;28;20449;-82
2021/04/18 03:31:15;;;;;;;4.60;3.27;;;10.40;70.20;;;;;;5013386;28;20460;-81
2021/04/18 03:33:42;;;;;;;4.90;3.67;;;10.40;70.70;;;;;;5013837;28;20449;-79
2021/04/18 03:36:09;;;;;;;5.47;4.20;;;10.30;71.00;;;;;;5013668;28;21238;-80
2021/04/18 03:38:37;;;;;;;4.33;3.60;;;10.20;71.60;;;;;;5015440;28;20516;-78
2021/04/18 03:41:04;;;;;;;6.80;3.70;;;10.30;71.90;;;;;;5013534;28;21144;-77
2021/04/18 03:43:30;;;;;;;8.80;4.37;;;10.40;71.90;;;;;;5016712;28;20469;-80
2021/04/18 03:45:57;;;;;;;5.97;4.83;;;10.30;72.00;;;;;;5014907;28;20486;-81
2021/04/18 03:48:24;;;;;;;7.67;4.60;;;10.20;72.40;;;;;;5014698;28;20453;-82
2021/04/18 03:50:50;;;;;;;9.83;4.30;;;10.20;72.80;;;;;;5015183;28;20811;-80
2021/04/18 03:53:16;;;;;;;5.63;4.73;;;10.10;73.20;;;;;;5018629;28;20480;-78
2021/04/18 03:55:43;;;;;;;8.10;4.60;;;10.10;73.70;;;;;;5019888;28;20846;-79
2021/04/18 03:58:10;;;;;;;7.10;5.53;;;10.20;74.00;;;;;;5015002;28;20481;-81
2021/04/18 04:00:36;;;;;;;10.63;5.40;;;10.10;74.40;;;;;;5016149;28;20454;-80
2021/04/18 04:03:02;;;;;;;8.80;6.40;;;10.10;74.70;;;;;;5014618;28;20472;-80
2021/04/18 04:05:29;;;;;;;8.70;7.20;;;10.10;75.40;;;;;;5013527;28;20517;-80
2021/04/18 04:07:56;;;;;;;8.77;6.43;;;10.10;75.90;;;;;;5017034;28;20456;-80
2021/04/18 04:10:22;;;;;;;8.63;6.30;;;10.00;76.10;;;;;;5016904;28;20509;-79
2021/04/18 04:12:48;;;;;;;6.70;6.03;;;10.00;76.80;;;;;;5020884;28;20464;-78
2021/04/18 04:15:15;;;;;;;13.93;7.10;;;9.90;78.40;;;;;;5021625;28;20660;-78
2021/04/18 04:17:41;;;;;;;7.63;6.03;;;9.90;79.10;;;;;;5021096;28;20469;-78
2021/04/18 04:20:08;;;;;;;11.23;6.63;;;9.90;79.70;;;;;;5029198;28;20496;-78
2021/04/18 04:22:35;;;;;;;10.50;6.83;;;9.90;80.30;;;;;;5044854;28;20462;-79
2021/04/18 04:25:02;;;;;;;8.90;6.60;;;9.80;80.90;;;;;;5028530;28;20485;-81
2021/04/18 04:27:29;;;;;;;9.93;6.93;;;9.90;81.50;;;;;;5029850;28;20461;-78
2021/04/18 04:29:57;;;;;;;11.47;6.13;;;9.80;81.80;;;;;;5042694;28;20434;-77
2021/04/18 04:32:23;;;;;;;7.13;6.37;;;9.70;82.50;;;;;;5041925;28;20456;-78
2021/04/18 04:34:50;;;;;;;6.30;5.00;;;9.60;83.90;;;;;;5040561;28;20487;-78
2021/04/18 04:37:16;;;;;;;6.93;6.17;;;9.60;84.90;;;;;;5034445;28;21110;-78
2021/04/18 04:39:43;;;;;;;7.40;5.33;;;9.50;85.50;;;;;;5023387;28;20489;-77
2021/04/18 04:42:09;;;;;;;9.93;7.00;;;9.50;85.70;;;;;;5021849;28;20450;-79
2021/04/18 04:44:36;;;;;;;7.73;6.20;;;9.50;86.00;;;;;;5016116;28;20602;-80
2021/04/18 04:47:03;;;;;;;7.07;5.53;;;9.50;86.20;;;;;;5027896;28;20461;-79
2021/04/18 04:49:29;;;;;;;9.10;5.23;;;9.50;86.40;;;;;;5011939;28;20464;-80
2021/04/18 04:51:56;;;;;;;6.40;4.87;;;9.50;86.70;;;;;;5013919;28;20438;-80
2021/04/18 04:54:23;;;;;;;9.27;6.07;;;9.50;86.70;;;;;;5011088;28;20457;-80
2021/04/18 04:56:50;;;;;;;6.43;5.03;;;9.50;86.80;;;;;;5016100;28;21582;-80
2021/04/18 04:59:16;;;;;;;7.43;4.80;;;9.50;87.10;;;;;;5012964;28;20982;-80
2021/04/18 05:01:43;;;;;;;6.73;5.50;;;9.40;87.20;;;;;;5014558;28;20461;-79
2021/04/18 05:04:09;;;;;;;7.90;5.10;;;9.40;87.40;;;;;;5012865;28;20501;-79
2021/04/18 05:06:35;;;;;;;6.57;4.53;;;9.40;87.50;;;;;;5013838;28;20730;-80
2021/04/18 05:09:02;;;;;;;6.33;4.90;;;9.40;87.40;;;;;;5012570;28;20465;-80
2021/04/18 05:11:29;;;;;;;9.27;5.43;;;9.30;87.90;;;;;;5013366;28;20484;-81
2021/04/18 05:13:55;;;;;;;6.33;5.20;;;9.30;88.70;;;;;;5011288;28;20863;-80
2021/04/18 05:16:22;;;;;;;7.17;5.20;;;9.20;89.00;;;;;;5011431;28;20474;-81
2021/04/18 05:18:48;;;;;;;7.90;5.53;;;9.20;89.70;;;;;;5015221;28;20468;-78
2021/04/18 05:21:15;;;;;;;7.63;5.70;;;9.20;89.90;;;;;;5015819;28;20449;-82
2021/04/18 05:23:42;;;;;;;6.97;5.40;;;9.20;90.10;;;;;;5016108;28;20457;-80
2021/04/18 05:26:09;;;;;;;7.40;6.23;;;9.20;90.30;;;;;;5015564;28;20504;-80
2021/04/18 05:28:36;;;;;;;7.97;5.87;;;9.10;90.50;;;;;;5016825;28;20453;-80
2021/04/18 05:31:03;;;;;;;9.10;5.57;;;9.10;90.80;;;;;;5015466;28;20500;-80
2021/04/18 05:33:30;;;;;;;9.17;5.47;;;9.10;90.70;;;;;;5014037;28;21027;-79
2021/04/18 05:35:56;;;;;;;7.30;5.37;;;9.10;90.60;;;;;;5013812;28;20516;-82
2021/04/18 05:38:23;;;;;;;7.80;5.57;;;9.00;90.80;;;;;;5015240;28;20497;-81
2021/04/18 05:40:50;;;;;;;8.07;6.00;;;9.00;90.80;;;;;;5017335;28;20464;-79
2021/04/18 05:43:16;;;;;;;7.87;5.60;;;9.00;90.90;;;;;;5014732;28;20558;-79
2021/04/18 05:45:43;;;;;;;9.73;6.07;;;9.00;90.90;;;;;;5015807;28;20486;-79
2021/04/18 05:48:10;;;;;;;12.10;6.50;;;8.80;91.00;;;;;;5015105;28;20480;-82
2021/04/18 05:50:38;;;;;;;7.30;6.23;;;8.80;91.30;;;;;;5018926;28;21883;-80
2021/04/18 05:53:05;;;;;;;10.87;6.60;;;8.80;91.40;;;;;;5018117;28;20457;-80
2021/04/18 05:55:31;;;;;;;7.90;5.80;;;8.80;91.40;;;;;;5013822;28;20499;-80
2021/04/18 05:57:58;;;;;;;8.40;6.80;;;8.90;91.40;;;;;;5014981;28;20973;-78
2021/04/18 06:00:25;;;;;;;8.23;6.43;;;8.90;91.40;;;;;;5020832;28;20561;-77
2021/04/18 06:02:55;;;;;;;10.33;6.33;;;8.90;91.60;;;;;;5026900;28;20473;-77
2021/04/18 06:05:21;;;;;;;10.20;7.70;;;8.90;91.60;;;;;;5037222;28;20553;-80
2021/04/18 06:07:48;;;;;;;9.63;6.67;;;9.00;91.60;;;;;;5037568;28;20472;-79
2021/04/18 06:10:15;;;;;;;11.97;6.70;;;9.00;91.60;;;;;;5037314;28;20480;-78
2021/04/18 06:12:44;;;;;;;8.57;5.93;;;9.00;91.50;;;;;;5036799;28;20549;-79
2021/04/18 06:15:11;;;;;;;9.43;6.97;;;9.20;91.30;;;;;;5033010;28;20552;-78
2021/04/18 06:17:38;;;;;;;8.67;6.37;;;9.10;91.30;;;;;;5020761;28;20450;-79
2021/04/18 06:20:06;;;;;;;9.37;6.60;;;9.20;91.50;;;;;;5018952;28;20555;-79
2021/04/18 06:22:34;;;;;;;8.30;6.37;;;9.10;91.70;;;;;;5019463;28;20464;-81
2021/04/18 06:25:00;;;;;;;8.60;6.87;;;9.00;91.80;;;;;;5019745;28;20495;-83
2021/04/18 06:27:27;;;;;;;9.63;7.30;;;9.00;92.10;;;;;;5016830;28;20876;-80
2021/04/18 06:29:53;;;;;;;10.03;6.97;;;9.20;92.00;;;;;;5017093;28;21247;-78
2021/04/18 06:32:20;;;;;;;8.70;7.20;;;9.30;92.00;;;;;;5019147;28;20457;-79
2021/04/18 06:34:57;;;;;;;15.10;7.97;;;9.60;91.30;;;;;;5015755;28;20476;-80
2021/04/18 06:37:26;;;;;;;9.57;6.93;;;9.50;90.80;;;;;;5018142;28;20577;-78
2021/04/18 06:39:53;;;;;;;14.53;9.03;;;9.80;90.70;;;;;;5017122;28;20497;-81
2021/04/18 06:42:22;;;;;;;12.63;7.47;;;10.00;88.70;;;;;;5015809;28;20465;-80
2021/04/18 06:44:50;;;;;;;10.07;7.37;;;9.70;90.40;;;;;;5016208;28;20492;-81
2021/04/18 06:47:17;;;;;;;9.37;8.40;;;9.60;91.00;;;;;;5014696;28;20449;-79
2021/04/18 06:49:43;;;;;;;10.27;8.00;;;9.50;91.20;;;;;;5013610;28;20449;-82
2021/04/18 06:52:12;;;;;;;12.67;8.57;;;9.40;91.40;;;;;;5015765;28;21262;-80
2021/04/18 06:54:39;;;;;;;9.17;7.73;;;9.50;91.90;;;;;;5012524;28;20478;-82
2021/04/18 06:57:06;;;;;;;11.83;8.33;;;9.90;91.80;;;;;;5016021;28;20477;-83
2021/04/18 06:59:37;;;;;;;8.80;7.60;;;10.10;90.40;;;;;;5021217;28;20455;-78
2021/04/18 07:02:05;;;;;;;17.07;8.93;;;10.30;90.20;;;;;;5026573;28;20725;-80
2021/04/18 07:04:33;;;;;;;10.10;7.77;;;10.30;89.90;;;;;;5011775;28;20485;-81
2021/04/18 07:07:02;;;;;;;11.03;8.30;;;10.10;90.10;;;;;;5012262;28;20462;-78
2021/04/18 07:09:28;;;;;;;12.20;8.10;;;9.90;91.00;;;;;;5008472;28;20461;-80
2021/04/18 07:11:57;;;;;;;12.73;7.80;;;9.90;91.40;;;;;;5013549;28;20461;-80
2021/04/18 07:14:35;;;;;;;11.00;7.80;;;9.90;91.60;;;;;;5023712;28;20499;-78
2021/04/18 07:17:20;;;;;;;9.23;8.33;;;10.00;91.20;;;;;;5021939;28;20459;-78
2021/04/18 07:19:51;;;;;;;9.07;7.90;;;10.80;91.20;;;;;;5024482;28;20446;-78
2021/04/18 07:22:25;;;;;;;12.97;8.60;;;11.20;88.40;;;;;;5022234;28;20458;-80
2021/04/18 07:24:53;;;;;;;8.50;7.60;;;11.20;86.60;;;;;;5020314;28;20516;-79
2021/04/18 07:27:21;;;;;;;12.27;8.40;;;11.00;86.50;;;;;;5017318;28;20458;-79
2021/04/18 07:29:58;;;;;;;15.00;8.17;;;10.60;87.40;;;;;;5016652;28;20457;-80
2021/04/18 07:32:27;;;;;;;11.80;9.07;;;10.50;88.70;;;;;;5015971;28;20449;-80
2021/04/18 07:34:54;;;;;;;11.43;9.03;;;10.50;89.60;;;;;;5014853;28;20497;-82
2021/04/18 07:37:25;;;;;;;9.57;8.43;;;10.50;89.90;;;;;;5011973;28;20461;-80
2021/04/18 07:39:58;;;;;;;10.57;8.40;;;10.40;90.20;;;;;;5014911;28;20460;-79
2021/04/18 07:42:34;;;;;;;12.70;9.30;;;10.40;90.30;;;;;;5013826;28;20468;-80
2021/04/18 07:45:21;;;;;;;11.87;8.63;;;10.30;90.50;;;;;;5016093;28;20488;-79
2021/04/18 07:47:47;;;;;;;10.10;9.00;;;10.40;90.60;;;;;;5013995;28;20874;-79
2021/04/18 07:50:14;;;;;;;9.87;8.77;;;10.40;90.60;;;;;;5019324;28;20481;-80
2021/04/18 07:52:45;;;;;;;10.70;8.93;;;10.50;90.80;;;;;;5032980;28;21670;-79
2021/04/18 07:55:12;;;;;;;11.17;9.00;;;10.70;90.80;;;;;;5032691;28;20541;-80
2021/04/18 07:57:39;;;;;;;10.60;9.00;;;11.30;90.10;;;;;;5031759;28;20472;-79
2021/04/18 08:00:08;;;;;;;11.63;8.57;;;12.30;89.40;;;;;;5032724;28;20468;-80
2021/04/18 08:02:36;;;;;;;10.80;7.87;;;14.30;83.40;;;;;;5021946;28;20541;-83
2021/04/18 08:05:04;;;;;;;10.87;9.00;;;16.60;75.00;;;;;;5015247;28;21727;-81
2021/04/18 08:07:30;;;;;;;12.80;9.70;;;17.80;63.80;;;;;;5019363;28;20461;-79
2021/04/18 08:10:23;;;;;;;14.80;7.90;;;18.30;59.30;;;;;;5035168;28;20429;-77
2021/04/18 08:13:01;;;;;;;10.70;8.73;;;17.10;59.00;;;;;;5032142;28;20910;-82
2021/04/18 08:15:31;;;;;;;11.03;9.07;;;15.80;60.90;;;;;;5021799;28;20450;-78
2021/04/18 08:18:04;;;;;;;11.73;9.60;;;14.70;64.80;;;;;;5038695;28;20461;-79
2021/04/18 08:20:35;;;;;;;11.47;10.17;;;14.20;68.10;;;;;;5041403;28;20434;-80
2021/04/18 08:23:13;;;;;;;11.43;10.27;;;14.30;71.00;;;;;;5023566;28;20462;-80
2021/04/18 08:26:36;;;;;;;11.30;9.07;;;15.10;67.90;;;;;;5015563;28;20534;-79
2021/04/18 08:29:25;;;;;;;10.83;8.90;;;14.50;67.80;;;;;;5016727;28;20510;-79
2021/04/18 08:32:06;;;;;;;16.23;10.80;;;13.60;71.00;;;;;;5002021;28;20518;-79
2021/04/18 08:34:50;;;;;;;12.13;9.93;;;13.30;73.20;;;;;;4999218;28;20472;-80
2021/04/18 08:40:29;;;;;;;14.30;10.70;;;13.90;75.50;;;;;;5012094;28;20462;-81
2021/04/18 08:43:24;;;;;;;13.03;10.47;;;14.70;71.90;;;;;;5000635;28;20482;-80
2021/04/18 08:46:30;;;;;;;13.13;10.50;;;14.40;71.40;;;;;;5014178;28;20539;-82
2021/04/18 08:49:26;;;;;;;13.43;10.77;;;14.40;72.10;;;;;;5015012;28;20490;-80
2021/04/18 08:52:05;;;;;;;16.03;11.50;;;13.90;72.50;;;;;;5002492;28;20461;-81
2021/04/18 08:54:53;;;;;;;16.87;11.70;;;13.50;74.30;;;;;;5005132;28;21936;-81
2021/04/18 08:57:31;;;;;;;13.83;12.00;;;13.30;75.80;;;;;;5005193;28;20465;-81
2021/04/18 09:00:41;;;;;;;16.30;13.00;;;13.00;77.00;;;;;;5026371;28;20453;-79
2021/04/18 09:03:17;;;;;;;16.30;13.40;;;12.70;79.20;;;;;;5028236;28;20471;-79
2021/04/18 09:06:22;;;;;;;19.73;12.30;;;12.40;81.00;;;;;;5027746;28;20473;-82
2021/04/18 09:09:18;;;;;;;19.27;12.37;;;12.50;82.10;;;;;;5029125;28;20508;-80
2021/04/18 09:11:48;;;;;;;17.37;12.60;;;12.50;82.80;;;;;;5025099;28;20456;-81
2021/04/18 09:14:44;;;;;;;19.40;12.00;;;12.60;82.90;;;;;;5030108;28;20448;-79
2021/04/18 09:17:29;;;;;;;17.37;12.57;;;12.60;82.40;;;;;;5032577;28;20469;-80
2021/04/18 09:20:16;;;;;;;17.03;12.00;;;12.80;82.20;;;;;;5046991;28;20473;-81
2021/04/18 09:22:45;;;;;;;17.23;12.00;;;12.80;81.80;;;;;;5062907;28;20456;-77
2021/04/18 09:25:22;;;;;;;16.47;10.63;;;12.80;81.40;;;;;;5040412;28;20535;-80
2021/04/18 09:27:55;;;;;;;15.33;11.83;;;12.70;81.80;;;;;;5041901;28;20437;-79
2021/04/18 09:30:29;;;;;;;16.77;11.07;;;12.70;81.60;;;;;;5040776;28;20441;-80
2021/04/18 09:33:29;;;;;;;14.27;11.33;;;12.60;81.30;;;;;;5043806;28;20454;-80
2021/04/18 09:36:07;;;;;;;14.17;11.00;;;12.70;81.10;;;;;;5034755;28;20466;-80
2021/04/18 09:38:53;;;;;;;13.90;10.43;;;12.80;80.60;;;;;;5044741;28;20465;-80
2021/04/18 09:41:26;;;;;;;12.33;10.40;;;12.90;79.70;;;;;;5032071;28;20448;-82
2021/04/18 09:44:25;;;;;;;13.77;10.63;;;12.80;79.80;;;;;;5023315;28;20460;-81
2021/04/18 09:47:27;;;;;;;11.80;9.40;;;12.80;79.80;;;;;;5027257;28;20437;-81
2021/04/18 09:49:56;;;;;;;14.00;10.33;;;12.80;79.50;;;;;;5022721;28;20450;-79
2021/04/18 09:52:29;;;;;;;16.10;11.50;;;13.00;79.40;;;;;;5017651;28;21231;-82
2021/04/18 09:55:27;;;;;;;13.43;10.17;;;12.90;79.40;;;;;;5019329;28;20470;-82
2021/04/18 09:57:55;;;;;;;14.37;11.23;;;13.10;80.20;;;;;;5018305;28;20449;-79
2021/04/18 10:00:31;;;;;;;13.90;11.30;;;13.00;80.10;;;;;;5022384;28;20447;-78
2021/04/18 10:03:09;;;;;;;15.60;10.57;;;12.90;80.30;;;;;;5022530;28;20437;-81
2021/04/18 10:05:44;;;;;;;14.93;11.13;;;12.70;80.50;;;;;;5025469;28;20509;-79
2021/04/18 10:08:23;;;;;;;14.50;10.90;;;12.70;81.20;;;;;;5019412;28;20457;-81
2021/04/18 10:10:57;;;;;;;17.00;10.87;;;12.60;82.10;;;;;;5021929;28;20454;-80
2021/04/18 10:13:37;;;;;;;17.13;11.77;;;12.50;82.70;;;;;;5025703;28;20453;-80
2021/04/18 10:16:42;;;;;;;18.27;11.53;;;12.50;84.10;;;;;;5026232;28;20473;-79
2021/04/18 10:19:11;;;;;;;16.80;10.90;;;12.50;86.10;;;;;;5020471;28;21114;-79
2021/04/18 10:21:39;;;;;;;14.47;10.87;;;12.40;88.30;;;;;;5019068;28;20461;-78
2021/04/18 10:24:31;;;;;;;13.87;10.47;;;12.40;90.00;;;;;;5014898;28;20469;-81
2021/04/18 10:27:01;;;;;;;13.70;10.70;;;12.30;90.80;;;;;;5014891;28;20458;-79
2021/04/18 10:29:29;;;;;;;19.30;12.17;;;12.20;91.20;;;;;;5015039;28;20464;-79
2021/04/18 10:31:56;;;;;;;15.93;11.20;;;12.10;91.30;;;;;;5016276;28;20465;-78
2021/04/18 10:34:23;;;;;;;13.53;11.27;;;12.10;91.80;;;;;;5012871;28;20729;-81
2021/04/18 10:36:49;;;;;;;15.17;11.07;;;12.10;92.40;;;;;;5015747;28;20646;-81
2021/04/18 10:39:17;;;;;;;13.83;10.37;;;12.00;92.40;;;;;;5017551;28;20485;-78
2021/04/18 10:41:45;;;;;;;12.03;10.10;;;12.10;92.60;;;;;;5017104;28;20470;-80
2021/04/18 10:44:17;;;;;;;15.50;10.80;;;12.00;92.20;;;;;;5013620;28;20541;-79
2021/04/18 10:46:46;;;;;;;16.37;10.63;;;12.10;92.20;;;;;;5017004;28;20491;-80
2021/04/18 10:49:13;;;;;;;12.97;9.60;;;12.20;91.90;;;;;;5016030;28;20514;-82
2021/04/18 10:51:40;;;;;;;15.23;10.57;;;12.20;92.10;;;;;;5014687;28;20454;-80
2021/04/18 10:54:09;;;;;;;13.50;10.47;;;12.10;91.50;;;;;;5015367;28;20511;-78
2021/04/18 10:56:36;;;;;;;11.40;9.47;;;12.10;91.40;;;;;;5015032;28;20469;-81
2021/04/18 10:59:04;;;;;;;14.20;9.50;;;12.20;91.70;;;;;;5013155;28;20497;-80
2021/04/18 11:01:31;;;;;;;14.80;10.77;;;12.30;91.50;;;;;;5013261;28;20536;-80
2021/04/18 11:03:57;;;;;;;16.27;9.20;;;12.50;91.80;;;;;;5014835;28;20463;-82
2021/04/18 11:06:24;;;;;;;15.67;10.20;;;12.70;91.70;;;;;;5013352;28;20485;-80
2021/04/18 11:08:51;;;;;;;12.93;9.87;;;12.80;91.20;;;;;;5015468;28;20536;-79
2021/04/18 11:11:18;;;;;;;13.43;10.70;;;12.90;91.10;;;;;;5014637;28;20507;-80
2021/04/18 11:13:46;;;;;;;15.13;10.50;;;13.00;91.20;;;;;;5013273;28;20445;-79
2021/04/18 11:16:12;;;;;;;15.53;10.77;;;13.30;90.80;;;;;;5014633;28;20481;-80
2021/04/18 11:18:39;;;;;;;14.57;10.67;;;13.40;90.40;;;;;;5016546;28;20460;-80
2021/04/18 11:21:09;;;;;;;11.67;9.97;;;13.50;89.50;;;;;;5016802;28;20462;-79
2021/04/18 11:23:36;;;;;;;13.60;10.10;;;13.70;89.30;;;;;;5034513;28;20476;-78
2021/04/18 11:26:07;;;;;;;11.80;9.77;;;13.70;88.40;;;;;;5032325;28;20504;-79
2021/04/18 11:28:33;;;;;;;15.07;9.30;;;13.60;87.60;;;;;;5033655;28;20453;-78
2021/04/18 11:31:00;;;;;;;15.40;10.07;;;13.40;87.70;;;;;;5031994;28;20470;-78
2021/04/18 11:33:27;;;;;;;17.10;11.07;;;13.20;88.00;;;;;;5031114;28;20457;-80
2021/04/18 11:35:54;;;;;;;14.17;11.17;;;13.20;88.40;;;;;;5028919;28;20548;-78
2021/04/18 11:38:21;;;;;;;15.53;11.10;;;13.30;88.90;;;;;;5023499;28;20556;-79
2021/04/18 11:40:48;;;;;;;16.07;10.93;;;13.40;87.40;;;;;;5020710;28;20461;-79
2021/04/18 11:43:14;;;;;;;13.87;10.47;;;13.20;86.90;;;;;;5024275;28;20472;-79
2021/04/18 11:45:50;;;;;;;15.43;11.03;;;13.10;87.00;;;;;;5021022;28;21559;-82
2021/04/18 11:49:09;;;;;;;14.43;10.50;;;13.00;86.90;;;;;;5027479;28;21426;-79
2021/04/18 11:51:42;;;;;;;13.10;10.97;;;13.00;86.80;;;;;;5032860;28;20465;-79
2021/04/18 11:54:11;;;;;;;16.50;10.97;;;13.10;86.50;;;;;;5039572;28;20441;-80
2021/04/18 11:59:22;;;;;;;15.30;10.60;;;13.10;84.90;;;;;;5028829;28;20564;-80
2021/04/18 12:02:17;;;;;;;11.87;10.33;;;13.20;83.60;;;;;;5028948;28;20519;-79
2021/04/18 12:05:37;;;;;;;16.43;11.27;;;13.20;83.50;;;;;;5029303;28;20544;-79
2021/04/18 12:08:31;;;;;;;10.90;9.80;;;13.30;82.90;;;;;;5032842;28;20465;-79
2021/04/18 12:11:19;;;;;;;12.43;11.03;;;13.60;81.20;;;;;;5016215;28;20458;-79
2021/04/18 12:14:14;;;;;;;13.63;10.50;;;13.70;80.20;;;;;;5016759;28;21305;-81
2021/04/18 12:16:49;;;;;;;18.93;10.53;;;13.80;80.00;;;;;;5006781;28;21151;-78
2021/04/18 12:19:20;;;;;;;15.83;11.30;;;14.00;79.10;;;;;;5020033;28;20494;-79
2021/04/18 12:22:19;;;;;;;17.03;12.00;;;13.90;79.20;;;;;;5011851;28;21332;-78
2021/04/18 12:25:02;;;;;;;14.20;10.70;;;13.80;79.30;;;;;;5007402;28;20541;-78
2021/04/18 12:28:17;;;;;;;;;;;;;;;;;;;;;
2021/04/18 12:31:27;;;;;;;20.47;11.87;;;13.70;79.70;;;;;;5011379;28;20500;-82
2021/04/18 12:34:21;;;;;;;13.40;11.10;;;14.00;79.20;;;;;;5012380;28;20446;-81
2021/04/18 12:36:49;;;;;;;15.57;12.23;;;14.00;78.80;;;;;;5017728;28;20704;-81
2021/04/18 12:39:41;;;;;;;15.03;11.80;;;14.10;78.10;;;;;;5020402;28;20459;-80
2021/04/18 12:42:46;;;;;;;15.10;11.17;;;13.90;78.30;;;;;;4993277;28;20473;-79
2021/04/18 12:45:43;;;;;;;13.93;11.40;;;14.00;79.00;;;;;;5011550;28;20657;-80
2021/04/18 12:48:15;;;;;;;15.37;11.03;;;14.20;78.00;;;;;;5015541;28;20521;-80
2021/04/18 12:51:00;;;;;;;13.60;10.63;;;14.20;77.00;;;;;;5012368;28;20472;-80
2021/04/18 12:53:42;;;;;;;16.27;11.33;;;14.10;77.20;;;;;;5010845;28;20493;-81
2021/04/18 12:56:16;;;;;;;13.73;10.83;;;14.00;76.80;;;;;;5009412;28;20853;-81
2021/04/18 12:58:57;;;;;;;12.73;9.80;;;14.10;76.70;;;;;;5009725;28;20571;-80
2021/04/18 13:01:28;;;;;;;12.33;9.73;;;14.10;76.50;;;;;;5011956;28;20473;-80
2021/04/18 13:03:54;;;;;;;12.03;9.60;;;14.20;76.10;;;;;;5015047;28;20493;-80
2021/04/18 13:06:22;;;;;;;13.70;11.00;;;14.20;75.30;;;;;;5022908;28;20541;-79
2021/04/18 13:08:52;;;;;;;13.13;10.80;;;14.20;75.20;;;;;;5012393;28;20587;-80
2021/04/18 13:11:20;;;;;;;10.87;9.27;;;14.20;75.40;;;;;;5006509;28;20465;-80